sensor_id;sensor_type;location;lat;lon;timestamp;temperature;humidity
30300;DHT22;17110;52.602;12.998;2023-03-20T00:01:29;7.10;99.90
30300;DHT22;17110;52.602;12.998;2023-03-20T00:03:56;7.00;99.90
30300;DHT22;17110;52.602;12.998;2023-03-20T00:06:24;7.00;99.90
30300;DHT22;17110;52.602;12.998;2023-03-20T00:08:52;7.00;99.90
30300;DHT22;17110;52.602;12.998;2023-03-20T00:11:32;7.10;99.90
30300;DHT22;17110;52.602;12.998;2023-03-20T00:14:05;6.90;99.90
30300;DHT22;17110;52.602;12.998;2023-03-20T00:16:34;6.80;99.90
30300;DHT22;17110;52.602;12.998;2023-03-20T00:19:00;6.70;99.90
30300;DHT22;17110;52.602;12.998;2023-03-20T00:21:28;6.50;99.90
30300;DHT22;17110;52.602;12.998;2023-03-20T00:23:54;6.40;99.90
30300;DHT22;17110;52.602;12.998;2023-03-20T00:26:25;6.40;99.90
30300;DHT22;17110;52.602;12.998;2023-03-20T00:28:51;6.50;99.90
30300;DHT22;17110;52.602;12.998;2023-03-20T00:31:36;6.50;99.90
30300;DHT22;17110;52.602;12.998;2023-03-20T00:34:05;6.60;99.90
30300;DHT22;17110;52.602;12.998;2023-03-20T00:36:31;6.50;99.90
30300;DHT22;17110;52.602;12.998;2023-03-20T00:38:57;6.40;99.90
30300;DHT22;17110;52.602;12.998;2023-03-20T00:41:32;6.40;99.90
30300;DHT22;17110;52.602;12.998;2023-03-20T00:44:22;6.50;99.90
30300;DHT22;17110;52.602;12.998;2023-03-20T00:46:59;6.40;99.90
30300;DHT22;17110;52.602;12.998;2023-03-20T00:49:28;6.40;99.90
30300;DHT22;17110;52.602;12.998;2023-03-20T00:51:57;6.40;99.90
30300;DHT22;17110;52.602;12.998;2023-03-20T00:54:23;6.60;99.90
30300;DHT22;17110;52.602;12.998;2023-03-20T00:59:27;6.80;99.90
30300;DHT22;17110;52.602;12.998;2023-03-20T01:01:57;6.80;99.90
30300;DHT22;17110;52.602;12.998;2023-03-20T01:04:23;6.90;99.90
30300;DHT22;17110;52.602;12.998;2023-03-20T01:06:49;6.80;99.90
30300;DHT22;17110;52.602;12.998;2023-03-20T01:09:15;6.80;99.90
30300;DHT22;17110;52.602;12.998;2023-03-20T01:11:43;6.90;99.90
30300;DHT22;17110;52.602;12.998;2023-03-20T01:14:14;6.90;99.90
30300;DHT22;17110;52.602;12.998;2023-03-20T01:16:41;6.90;99.90
30300;DHT22;17110;52.602;12.998;2023-03-20T01:19:11;7.00;99.90
30300;DHT22;17110;52.602;12.998;2023-03-20T01:21:37;6.90;99.90
30300;DHT22;17110;52.602;12.998;2023-03-20T01:24:07;6.80;99.90
30300;DHT22;17110;52.602;12.998;2023-03-20T01:26:38;6.70;99.90
30300;DHT22;17110;52.602;12.998;2023-03-20T01:29:15;6.80;99.90
30300;DHT22;17110;52.602;12.998;2023-03-20T01:31:42;7.00;99.90
30300;DHT22;17110;52.602;12.998;2023-03-20T01:34:09;7.00;99.90
30300;DHT22;17110;52.602;12.998;2023-03-20T01:36:36;7.00;99.90
30300;DHT22;17110;52.602;12.998;2023-03-20T01:39:02;7.10;99.90
30300;DHT22;17110;52.602;12.998;2023-03-20T01:41:28;7.10;99.90
30300;DHT22;17110;52.602;12.998;2023-03-20T01:43:54;7.10;99.90
30300;DHT22;17110;52.602;12.998;2023-03-20T01:46:27;7.20;99.90
30300;DHT22;17110;52.602;12.998;2023-03-20T01:49:04;7.10;99.90
30300;DHT22;17110;52.602;12.998;2023-03-20T01:51:31;7.10;99.90
30300;DHT22;17110;52.602;12.998;2023-03-20T01:56:33;7.10;99.90
30300;DHT22;17110;52.602;12.998;2023-03-20T01:59:03;7.20;99.90
30300;DHT22;17110;52.602;12.998;2023-03-20T02:01:32;7.10;99.90
30300;DHT22;17110;52.602;12.998;2023-03-20T02:04:00;7.00;99.90
30300;DHT22;17110;52.602;12.998;2023-03-20T02:06:25;6.90;99.90
30300;DHT22;17110;52.602;12.998;2023-03-20T02:08:52;6.90;99.90
30300;DHT22;17110;52.602;12.998;2023-03-20T02:11:20;6.90;99.90
30300;DHT22;17110;52.602;12.998;2023-03-20T02:13:51;7.00;99.90
30300;DHT22;17110;52.602;12.998;2023-03-20T02:16:17;7.10;99.90
30300;DHT22;17110;52.602;12.998;2023-03-20T02:18:46;7.20;99.90
30300;DHT22;17110;52.602;12.998;2023-03-20T02:43:23;7.70;99.90
30300;DHT22;17110;52.602;12.998;2023-03-20T02:46:09;7.60;99.90
30300;DHT22;17110;52.602;12.998;2023-03-20T02:48:52;7.60;99.90
30300;DHT22;17110;52.602;12.998;2023-03-20T02:51:40;7.70;99.90
30300;DHT22;17110;52.602;12.998;2023-03-20T02:56:57;7.70;99.90
30300;DHT22;17110;52.602;12.998;2023-03-20T03:00:01;7.60;99.90
30300;DHT22;17110;52.602;12.998;2023-03-20T03:02:52;7.60;99.90
30300;DHT22;17110;52.602;12.998;2023-03-20T03:05:28;7.30;99.90
30300;DHT22;17110;52.602;12.998;2023-03-20T03:07:58;7.30;99.90
30300;DHT22;17110;52.602;12.998;2023-03-20T03:10:33;7.40;99.90
30300;DHT22;17110;52.602;12.998;2023-03-20T03:13:02;7.40;99.90
30300;DHT22;17110;52.602;12.998;2023-03-20T03:15:36;7.40;99.90
30300;DHT22;17110;52.602;12.998;2023-03-20T03:18:04;7.40;99.90
30300;DHT22;17110;52.602;12.998;2023-03-20T03:20:36;7.30;99.90
30300;DHT22;17110;52.602;12.998;2023-03-20T03:23:03;7.30;99.90
30300;DHT22;17110;52.602;12.998;2023-03-20T03:25:33;7.40;99.90
30300;DHT22;17110;52.602;12.998;2023-03-20T03:28:14;7.40;99.90
30300;DHT22;17110;52.602;12.998;2023-03-20T03:30:44;7.50;99.90
30300;DHT22;17110;52.602;12.998;2023-03-20T03:33:20;7.50;99.90
30300;DHT22;17110;52.602;12.998;2023-03-20T03:35:47;7.50;99.90
30300;DHT22;17110;52.602;12.998;2023-03-20T03:38:20;7.50;99.90
30300;DHT22;17110;52.602;12.998;2023-03-20T03:41:12;7.60;99.90
30300;DHT22;17110;52.602;12.998;2023-03-20T03:43:46;7.60;99.90
30300;DHT22;17110;52.602;12.998;2023-03-20T03:46:17;7.60;99.90
30300;DHT22;17110;52.602;12.998;2023-03-20T03:48:48;7.70;99.90
30300;DHT22;17110;52.602;12.998;2023-03-20T03:51:18;7.70;99.90
30300;DHT22;17110;52.602;12.998;2023-03-20T03:53:53;7.70;99.90
30300;DHT22;17110;52.602;12.998;2023-03-20T03:56:22;7.70;99.90
30300;DHT22;17110;52.602;12.998;2023-03-20T03:58:52;7.90;99.90
30300;DHT22;17110;52.602;12.998;2023-03-20T04:01:25;8.00;99.90
30300;DHT22;17110;52.602;12.998;2023-03-20T04:03:57;8.00;99.90
30300;DHT22;17110;52.602;12.998;2023-03-20T04:06:26;7.90;99.90
30300;DHT22;17110;52.602;12.998;2023-03-20T04:08:52;7.90;99.90
30300;DHT22;17110;52.602;12.998;2023-03-20T04:11:50;7.90;99.90
30300;DHT22;17110;52.602;12.998;2023-03-20T04:14:17;8.00;99.90
30300;DHT22;17110;52.602;12.998;2023-03-20T04:16:42;7.90;99.90
30300;DHT22;17110;52.602;12.998;2023-03-20T04:19:08;7.90;99.90
30300;DHT22;17110;52.602;12.998;2023-03-20T04:21:34;7.80;99.90
30300;DHT22;17110;52.602;12.998;2023-03-20T04:24:00;7.80;99.90
30300;DHT22;17110;52.602;12.998;2023-03-20T04:26:25;7.80;99.90
30300;DHT22;17110;52.602;12.998;2023-03-20T04:28:51;7.80;99.90
30300;DHT22;17110;52.602;12.998;2023-03-20T04:31:17;7.90;99.90
30300;DHT22;17110;52.602;12.998;2023-03-20T04:33:44;7.90;99.90
30300;DHT22;17110;52.602;12.998;2023-03-20T04:36:10;7.90;99.90
30300;DHT22;17110;52.602;12.998;2023-03-20T04:38:36;8.00;99.90
30300;DHT22;17110;52.602;12.998;2023-03-20T04:41:03;8.00;99.90
30300;DHT22;17110;52.602;12.998;2023-03-20T04:43:28;8.00;99.90
30300;DHT22;17110;52.602;12.998;2023-03-20T04:45:55;8.10;99.90
30300;DHT22;17110;52.602;12.998;2023-03-20T04:48:20;8.20;99.90
30300;DHT22;17110;52.602;12.998;2023-03-20T04:50:46;8.00;99.90
30300;DHT22;17110;52.602;12.998;2023-03-20T04:53:16;8.00;99.90
30300;DHT22;17110;52.602;12.998;2023-03-20T04:55:43;8.00;99.90
30300;DHT22;17110;52.602;12.998;2023-03-20T04:58:11;8.00;99.90
30300;DHT22;17110;52.602;12.998;2023-03-20T05:00:36;8.00;99.90
30300;DHT22;17110;52.602;12.998;2023-03-20T05:03:02;8.00;99.90
30300;DHT22;17110;52.602;12.998;2023-03-20T05:05:28;8.00;99.90
30300;DHT22;17110;52.602;12.998;2023-03-20T05:07:54;8.00;99.90
30300;DHT22;17110;52.602;12.998;2023-03-20T05:10:20;8.00;99.90
30300;DHT22;17110;52.602;12.998;2023-03-20T05:12:46;8.00;99.90
30300;DHT22;17110;52.602;12.998;2023-03-20T05:15:12;7.90;99.90
30300;DHT22;17110;52.602;12.998;2023-03-20T05:17:38;7.90;99.90
30300;DHT22;17110;52.602;12.998;2023-03-20T05:20:05;7.80;99.90
30300;DHT22;17110;52.602;12.998;2023-03-20T05:22:31;7.80;99.90
30300;DHT22;17110;52.602;12.998;2023-03-20T05:24:56;7.90;99.90
30300;DHT22;17110;52.602;12.998;2023-03-20T05:27:22;7.90;99.90
30300;DHT22;17110;52.602;12.998;2023-03-20T05:29:48;7.70;99.90
30300;DHT22;17110;52.602;12.998;2023-03-20T05:32:14;7.80;99.90
30300;DHT22;17110;52.602;12.998;2023-03-20T05:34:39;8.00;99.90
30300;DHT22;17110;52.602;12.998;2023-03-20T05:37:05;8.10;99.90
30300;DHT22;17110;52.602;12.998;2023-03-20T05:39:31;8.30;99.90
30300;DHT22;17110;52.602;12.998;2023-03-20T05:41:57;8.50;99.90
30300;DHT22;17110;52.602;12.998;2023-03-20T05:44:23;8.50;99.90
30300;DHT22;17110;52.602;12.998;2023-03-20T05:46:48;8.60;99.90
30300;DHT22;17110;52.602;12.998;2023-03-20T05:49:14;8.70;99.90
30300;DHT22;17110;52.602;12.998;2023-03-20T05:51:40;8.60;99.90
30300;DHT22;17110;52.602;12.998;2023-03-20T05:54:06;8.60;99.90
30300;DHT22;17110;52.602;12.998;2023-03-20T05:56:31;8.50;99.90
30300;DHT22;17110;52.602;12.998;2023-03-20T05:59:00;8.70;99.90
30300;DHT22;17110;52.602;12.998;2023-03-20T06:01:27;8.70;99.90
30300;DHT22;17110;52.602;12.998;2023-03-20T06:03:53;8.60;99.90
30300;DHT22;17110;52.602;12.998;2023-03-20T06:06:19;8.60;99.90
30300;DHT22;17110;52.602;12.998;2023-03-20T06:08:44;8.70;99.90
30300;DHT22;17110;52.602;12.998;2023-03-20T06:11:11;8.50;99.90
30300;DHT22;17110;52.602;12.998;2023-03-20T06:13:36;8.60;99.90
30300;DHT22;17110;52.602;12.998;2023-03-20T06:16:02;8.60;99.90
30300;DHT22;17110;52.602;12.998;2023-03-20T06:18:30;8.60;99.90
30300;DHT22;17110;52.602;12.998;2023-03-20T06:20:57;8.70;99.90
30300;DHT22;17110;52.602;12.998;2023-03-20T06:23:24;8.70;99.90
30300;DHT22;17110;52.602;12.998;2023-03-20T06:25:50;8.60;99.90
30300;DHT22;17110;52.602;12.998;2023-03-20T06:28:16;8.60;99.90
30300;DHT22;17110;52.602;12.998;2023-03-20T06:30:42;8.70;99.90
30300;DHT22;17110;52.602;12.998;2023-03-20T06:33:08;8.70;99.90
30300;DHT22;17110;52.602;12.998;2023-03-20T06:35:35;8.60;99.90
30300;DHT22;17110;52.602;12.998;2023-03-20T06:38:00;8.70;99.90
30300;DHT22;17110;52.602;12.998;2023-03-20T06:40:27;8.70;99.90
30300;DHT22;17110;52.602;12.998;2023-03-20T06:42:53;8.70;99.90
30300;DHT22;17110;52.602;12.998;2023-03-20T06:45:19;8.80;99.90
30300;DHT22;17110;52.602;12.998;2023-03-20T06:47:46;8.80;99.90
30300;DHT22;17110;52.602;12.998;2023-03-20T06:50:12;8.80;99.90
30300;DHT22;17110;52.602;12.998;2023-03-20T06:52:38;8.70;99.90
30300;DHT22;17110;52.602;12.998;2023-03-20T06:55:05;8.70;99.90
30300;DHT22;17110;52.602;12.998;2023-03-20T06:57:31;8.60;99.90
30300;DHT22;17110;52.602;12.998;2023-03-20T06:59:59;8.70;99.90
30300;DHT22;17110;52.602;12.998;2023-03-20T07:02:25;8.80;99.90
30300;DHT22;17110;52.602;12.998;2023-03-20T07:04:50;8.80;99.90
30300;DHT22;17110;52.602;12.998;2023-03-20T07:07:17;8.80;99.90
30300;DHT22;17110;52.602;12.998;2023-03-20T07:09:43;8.90;99.90
30300;DHT22;17110;52.602;12.998;2023-03-20T07:12:15;8.90;99.90
30300;DHT22;17110;52.602;12.998;2023-03-20T07:14:41;9.00;99.90
30300;DHT22;17110;52.602;12.998;2023-03-20T07:17:08;9.10;99.90
30300;DHT22;17110;52.602;12.998;2023-03-20T07:19:37;9.30;99.90
30300;DHT22;17110;52.602;12.998;2023-03-20T07:22:08;9.10;99.90
30300;DHT22;17110;52.602;12.998;2023-03-20T07:24:39;9.20;99.90
30300;DHT22;17110;52.602;12.998;2023-03-20T07:27:08;9.30;99.90
30300;DHT22;17110;52.602;12.998;2023-03-20T07:29:37;9.20;99.90
30300;DHT22;17110;52.602;12.998;2023-03-20T07:32:02;9.30;99.90
30300;DHT22;17110;52.602;12.998;2023-03-20T07:34:28;9.30;99.90
30300;DHT22;17110;52.602;12.998;2023-03-20T07:36:54;9.40;99.90
30300;DHT22;17110;52.602;12.998;2023-03-20T07:39:20;9.40;99.90
30300;DHT22;17110;52.602;12.998;2023-03-20T07:41:46;9.60;99.90
30300;DHT22;17110;52.602;12.998;2023-03-20T07:44:12;9.70;99.90
30300;DHT22;17110;52.602;12.998;2023-03-20T07:46:39;9.80;99.90
30300;DHT22;17110;52.602;12.998;2023-03-20T07:49:05;9.80;99.90
30300;DHT22;17110;52.602;12.998;2023-03-20T07:51:32;9.80;99.90
30300;DHT22;17110;52.602;12.998;2023-03-20T07:53:58;10.00;99.90
30300;DHT22;17110;52.602;12.998;2023-03-20T07:56:23;9.90;99.90
30300;DHT22;17110;52.602;12.998;2023-03-20T07:58:49;9.90;99.90
30300;DHT22;17110;52.602;12.998;2023-03-20T08:01:15;9.80;99.90
30300;DHT22;17110;52.602;12.998;2023-03-20T08:03:41;9.90;99.90
30300;DHT22;17110;52.602;12.998;2023-03-20T08:06:07;10.10;99.90
30300;DHT22;17110;52.602;12.998;2023-03-20T08:08:34;10.40;99.90
30300;DHT22;17110;52.602;12.998;2023-03-20T08:11:00;10.60;99.90
30300;DHT22;17110;52.602;12.998;2023-03-20T08:13:26;10.80;99.90
30300;DHT22;17110;52.602;12.998;2023-03-20T08:15:52;11.20;99.90
30300;DHT22;17110;52.602;12.998;2023-03-20T08:18:18;11.50;99.90
30300;DHT22;17110;52.602;12.998;2023-03-20T08:20:44;11.80;99.90
30300;DHT22;17110;52.602;12.998;2023-03-20T08:23:11;11.90;99.90
30300;DHT22;17110;52.602;12.998;2023-03-20T08:25:36;12.10;99.90
30300;DHT22;17110;52.602;12.998;2023-03-20T08:28:02;12.20;99.90
30300;DHT22;17110;52.602;12.998;2023-03-20T08:30:29;12.10;99.90
30300;DHT22;17110;52.602;12.998;2023-03-20T08:32:55;12.20;99.90
30300;DHT22;17110;52.602;12.998;2023-03-20T08:35:22;12.60;99.90
30300;DHT22;17110;52.602;12.998;2023-03-20T08:37:48;12.80;99.90
30300;DHT22;17110;52.602;12.998;2023-03-20T08:40:14;13.30;99.90
30300;DHT22;17110;52.602;12.998;2023-03-20T08:42:39;13.40;99.90
30300;DHT22;17110;52.602;12.998;2023-03-20T08:45:06;13.30;99.90
30300;DHT22;17110;52.602;12.998;2023-03-20T08:47:32;13.70;99.90
30300;DHT22;17110;52.602;12.998;2023-03-20T08:49:57;14.00;99.90
30300;DHT22;17110;52.602;12.998;2023-03-20T08:52:23;14.20;99.90
30300;DHT22;17110;52.602;12.998;2023-03-20T08:54:49;13.70;99.90
30300;DHT22;17110;52.602;12.998;2023-03-20T08:57:15;13.30;99.90
30300;DHT22;17110;52.602;12.998;2023-03-20T08:59:41;13.30;99.90
30300;DHT22;17110;52.602;12.998;2023-03-20T09:02:09;13.60;99.90
30300;DHT22;17110;52.602;12.998;2023-03-20T09:04:35;13.50;99.90
30300;DHT22;17110;52.602;12.998;2023-03-20T09:07:01;13.60;99.90
30300;DHT22;17110;52.602;12.998;2023-03-20T09:09:28;13.60;99.90
30300;DHT22;17110;52.602;12.998;2023-03-20T09:11:56;13.40;99.90
30300;DHT22;17110;52.602;12.998;2023-03-20T09:14:23;13.10;99.90
30300;DHT22;17110;52.602;12.998;2023-03-20T09:16:50;12.80;99.90
30300;DHT22;17110;52.602;12.998;2023-03-20T09:19:17;12.30;99.90
30300;DHT22;17110;52.602;12.998;2023-03-20T09:21:43;12.00;99.90
30300;DHT22;17110;52.602;12.998;2023-03-20T09:24:09;11.80;99.90
30300;DHT22;17110;52.602;12.998;2023-03-20T09:26:37;11.80;99.90
30300;DHT22;17110;52.602;12.998;2023-03-20T09:29:03;11.80;99.90
30300;DHT22;17110;52.602;12.998;2023-03-20T09:31:29;11.90;99.90
30300;DHT22;17110;52.602;12.998;2023-03-20T09:33:55;11.90;99.90
30300;DHT22;17110;52.602;12.998;2023-03-20T09:36:21;11.90;99.90
30300;DHT22;17110;52.602;12.998;2023-03-20T09:38:48;11.90;99.90
30300;DHT22;17110;52.602;12.998;2023-03-20T09:41:21;12.00;99.90
30300;DHT22;17110;52.602;12.998;2023-03-20T09:44:31;12.40;99.90
30300;DHT22;17110;52.602;12.998;2023-03-20T09:47:04;12.60;99.90
30300;DHT22;17110;52.602;12.998;2023-03-20T09:49:58;12.60;99.90
30300;DHT22;17110;52.602;12.998;2023-03-20T09:53:09;12.60;99.90
30300;DHT22;17110;52.602;12.998;2023-03-20T09:55:38;12.60;99.90
30300;DHT22;17110;52.602;12.998;2023-03-20T09:58:19;12.40;99.90
30300;DHT22;17110;52.602;12.998;2023-03-20T10:00:45;12.50;99.90
30300;DHT22;17110;52.602;12.998;2023-03-20T10:03:25;12.70;99.90
30300;DHT22;17110;52.602;12.998;2023-03-20T10:06:11;12.80;99.90
30300;DHT22;17110;52.602;12.998;2023-03-20T10:08:40;12.80;99.90
30300;DHT22;17110;52.602;12.998;2023-03-20T10:14:37;12.50;99.90
30300;DHT22;17110;52.602;12.998;2023-03-20T10:19:54;12.50;99.90
30300;DHT22;17110;52.602;12.998;2023-03-20T10:22:34;12.60;99.90
30300;DHT22;17110;52.602;12.998;2023-03-20T10:25:25;12.50;99.90
30300;DHT22;17110;52.602;12.998;2023-03-20T10:28:00;12.20;99.90
30300;DHT22;17110;52.602;12.998;2023-03-20T10:36:27;12.10;99.90
30300;DHT22;17110;52.602;12.998;2023-03-20T10:41:53;12.10;99.90
30300;DHT22;17110;52.602;12.998;2023-03-20T10:44:30;12.00;99.90
30300;DHT22;17110;52.602;12.998;2023-03-20T10:47:00;11.90;99.90
30300;DHT22;17110;52.602;12.998;2023-03-20T10:49:29;11.80;99.90
30300;DHT22;17110;52.602;12.998;2023-03-20T10:52:05;11.80;99.90
30300;DHT22;17110;52.602;12.998;2023-03-20T10:54:42;11.70;99.90
30300;DHT22;17110;52.602;12.998;2023-03-20T10:57:19;11.80;99.90
30300;DHT22;17110;52.602;12.998;2023-03-20T10:59:49;11.90;99.90
30300;DHT22;17110;52.602;12.998;2023-03-20T11:02:18;12.10;99.90
30300;DHT22;17110;52.602;12.998;2023-03-20T11:04:44;12.30;99.90
30300;DHT22;17110;52.602;12.998;2023-03-20T11:07:27;12.40;99.90
30300;DHT22;17110;52.602;12.998;2023-03-20T11:10:06;12.40;99.90
30300;DHT22;17110;52.602;12.998;2023-03-20T11:12:35;12.30;99.90
30300;DHT22;17110;52.602;12.998;2023-03-20T11:18:01;11.90;99.90
30300;DHT22;17110;52.602;12.998;2023-03-20T11:20:37;11.80;99.90
30300;DHT22;17110;52.602;12.998;2023-03-20T11:23:05;11.70;99.90
30300;DHT22;17110;52.602;12.998;2023-03-20T11:25:55;11.80;99.90
30300;DHT22;17110;52.602;12.998;2023-03-20T11:33:36;12.10;99.90
30300;DHT22;17110;52.602;12.998;2023-03-20T11:36:10;12.10;99.90
30300;DHT22;17110;52.602;12.998;2023-03-20T11:38:43;11.90;99.90
30300;DHT22;17110;52.602;12.998;2023-03-20T11:41:17;11.80;99.90
30300;DHT22;17110;52.602;12.998;2023-03-20T11:43:44;11.90;99.90
30300;DHT22;17110;52.602;12.998;2023-03-20T11:46:12;11.90;99.90
30300;DHT22;17110;52.602;12.998;2023-03-20T11:48:44;11.90;99.90
30300;DHT22;17110;52.602;12.998;2023-03-20T11:51:15;11.80;99.90
30300;DHT22;17110;52.602;12.998;2023-03-20T11:53:57;11.80;99.90
30300;DHT22;17110;52.602;12.998;2023-03-20T11:56:33;11.90;99.90
30300;DHT22;17110;52.602;12.998;2023-03-20T12:01:50;11.90;99.90
30300;DHT22;17110;52.602;12.998;2023-03-20T12:04:28;11.90;99.90
30300;DHT22;17110;52.602;12.998;2023-03-20T12:07:02;11.90;99.90
30300;DHT22;17110;52.602;12.998;2023-03-20T12:14:37;12.00;99.90
30300;DHT22;17110;52.602;12.998;2023-03-20T12:18:30;11.90;99.90
30300;DHT22;17110;52.602;12.998;2023-03-20T12:25:56;11.70;99.90
30300;DHT22;17110;52.602;12.998;2023-03-20T12:28:43;11.60;99.90
30300;DHT22;17110;52.602;12.998;2023-03-20T12:34:11;11.90;99.90
30300;DHT22;17110;52.602;12.998;2023-03-20T12:36:44;12.20;99.90
30300;DHT22;17110;52.602;12.998;2023-03-20T12:39:14;12.50;99.90
30300;DHT22;17110;52.602;12.998;2023-03-20T12:41:54;12.70;99.90
30300;DHT22;17110;52.602;12.998;2023-03-20T12:44:54;12.80;99.90
30300;DHT22;17110;52.602;12.998;2023-03-20T13:00:53;12.80;99.90
30300;DHT22;17110;52.602;12.998;2023-03-20T13:03:45;12.70;99.90
30300;DHT22;17110;52.602;12.998;2023-03-20T13:17:14;12.50;99.90
30300;DHT22;17110;52.602;12.998;2023-03-20T13:20:12;12.50;99.90
30300;DHT22;17110;52.602;12.998;2023-03-20T13:23:42;12.20;99.90
30300;DHT22;17110;52.602;12.998;2023-03-20T13:29:27;12.10;99.90
30300;DHT22;17110;52.602;12.998;2023-03-20T13:35:18;11.80;99.90
30300;DHT22;17110;52.602;12.998;2023-03-20T13:37:51;11.70;99.90
30300;DHT22;17110;52.602;12.998;2023-03-20T13:40:27;11.60;99.90
30300;DHT22;17110;52.602;12.998;2023-03-20T13:45:39;11.70;99.90
30300;DHT22;17110;52.602;12.998;2023-03-20T13:48:26;11.60;99.90
30300;DHT22;17110;52.602;12.998;2023-03-20T13:54:39;11.80;99.90
30300;DHT22;17110;52.602;12.998;2023-03-20T14:05:20;11.70;99.90
30300;DHT22;17110;52.602;12.998;2023-03-20T14:07:49;11.80;99.90
30300;DHT22;17110;52.602;12.998;2023-03-20T14:13:01;11.70;99.90
30300;DHT22;17110;52.602;12.998;2023-03-20T14:15:32;11.70;99.90
30300;DHT22;17110;52.602;12.998;2023-03-20T14:18:04;11.80;99.90
30300;DHT22;17110;52.602;12.998;2023-03-20T14:20:36;12.00;99.90
30300;DHT22;17110;52.602;12.998;2023-03-20T14:23:02;12.00;99.90
30300;DHT22;17110;52.602;12.998;2023-03-20T14:25:34;12.00;99.90
30300;DHT22;17110;52.602;12.998;2023-03-20T14:30:44;11.90;99.90
30300;DHT22;17110;52.602;12.998;2023-03-20T14:36:09;11.50;99.90
30300;DHT22;17110;52.602;12.998;2023-03-20T14:41:28;11.40;99.90
30300;DHT22;17110;52.602;12.998;2023-03-20T14:44:16;11.30;99.90
30300;DHT22;17110;52.602;12.998;2023-03-20T14:47:34;11.40;99.90
30300;DHT22;17110;52.602;12.998;2023-03-20T14:52:35;11.40;99.90
30300;DHT22;17110;52.602;12.998;2023-03-20T14:57:56;11.40;99.90
30300;DHT22;17110;52.602;12.998;2023-03-20T15:00:28;11.40;99.90
30300;DHT22;17110;52.602;12.998;2023-03-20T15:03:17;11.70;99.90
30300;DHT22;17110;52.602;12.998;2023-03-20T15:05:44;11.70;99.90
30300;DHT22;17110;52.602;12.998;2023-03-20T15:08:23;11.60;99.90
30300;DHT22;17110;52.602;12.998;2023-03-20T15:10:52;11.60;99.90
30300;DHT22;17110;52.602;12.998;2023-03-20T15:13:18;11.70;99.90
30300;DHT22;17110;52.602;12.998;2023-03-20T15:16:14;11.90;99.90
30300;DHT22;17110;52.602;12.998;2023-03-20T15:18:42;11.80;99.90
30300;DHT22;17110;52.602;12.998;2023-03-20T15:21:13;11.70;99.90
30300;DHT22;17110;52.602;12.998;2023-03-20T15:23:44;11.80;99.90
30300;DHT22;17110;52.602;12.998;2023-03-20T15:26:17;11.80;99.90
30300;DHT22;17110;52.602;12.998;2023-03-20T15:28:44;11.70;99.90
30300;DHT22;17110;52.602;12.998;2023-03-20T15:31:26;11.70;99.90
30300;DHT22;17110;52.602;12.998;2023-03-20T15:33:55;11.80;99.90
30300;DHT22;17110;52.602;12.998;2023-03-20T15:36:29;11.60;99.90
30300;DHT22;17110;52.602;12.998;2023-03-20T15:39:22;11.60;99.90
30300;DHT22;17110;52.602;12.998;2023-03-20T15:42:00;11.50;99.90
30300;DHT22;17110;52.602;12.998;2023-03-20T15:44:34;11.40;99.90
30300;DHT22;17110;52.602;12.998;2023-03-20T15:47:10;11.40;99.90
30300;DHT22;17110;52.602;12.998;2023-03-20T15:49:49;11.60;99.90
30300;DHT22;17110;52.602;12.998;2023-03-20T15:52:25;11.50;99.90
30300;DHT22;17110;52.602;12.998;2023-03-20T15:54:56;11.40;99.90
30300;DHT22;17110;52.602;12.998;2023-03-20T15:57:31;11.50;99.90
30300;DHT22;17110;52.602;12.998;2023-03-20T15:59:58;11.60;99.90
30300;DHT22;17110;52.602;12.998;2023-03-20T16:02:25;11.60;99.90
30300;DHT22;17110;52.602;12.998;2023-03-20T16:04:52;11.60;99.90
30300;DHT22;17110;52.602;12.998;2023-03-20T16:07:30;11.60;99.90
30300;DHT22;17110;52.602;12.998;2023-03-20T16:09:57;11.40;99.90
30300;DHT22;17110;52.602;12.998;2023-03-20T16:12:25;11.20;99.90
30300;DHT22;17110;52.602;12.998;2023-03-20T16:14:52;11.20;99.90
30300;DHT22;17110;52.602;12.998;2023-03-20T16:17:20;11.30;99.90
30300;DHT22;17110;52.602;12.998;2023-03-20T16:19:47;11.20;99.90
30300;DHT22;17110;52.602;12.998;2023-03-20T16:22:26;11.20;99.90
30300;DHT22;17110;52.602;12.998;2023-03-20T16:24:56;11.10;99.90
30300;DHT22;17110;52.602;12.998;2023-03-20T16:27:27;11.20;99.90
30300;DHT22;17110;52.602;12.998;2023-03-20T16:29:54;11.30;99.90
30300;DHT22;17110;52.602;12.998;2023-03-20T16:32:31;11.30;99.90
30300;DHT22;17110;52.602;12.998;2023-03-20T16:34:58;11.40;99.90
30300;DHT22;17110;52.602;12.998;2023-03-20T16:37:27;11.40;99.90
30300;DHT22;17110;52.602;12.998;2023-03-20T16:40:16;11.30;99.90
30300;DHT22;17110;52.602;12.998;2023-03-20T16:42:43;11.20;99.90
30300;DHT22;17110;52.602;12.998;2023-03-20T16:45:35;11.20;99.90
30300;DHT22;17110;52.602;12.998;2023-03-20T16:53:36;10.90;99.90
30300;DHT22;17110;52.602;12.998;2023-03-20T16:56:07;10.70;99.90
30300;DHT22;17110;52.602;12.998;2023-03-20T16:58:36;10.60;99.90
30300;DHT22;17110;52.602;12.998;2023-03-20T17:01:07;10.50;99.90
30300;DHT22;17110;52.602;12.998;2023-03-20T17:03:44;10.50;99.90
30300;DHT22;17110;52.602;12.998;2023-03-20T17:11:39;10.60;99.90
30300;DHT22;17110;52.602;12.998;2023-03-20T17:14:09;10.80;99.90
30300;DHT22;17110;52.602;12.998;2023-03-20T17:16:34;10.60;99.90
30300;DHT22;17110;52.602;12.998;2023-03-20T17:19:09;10.60;99.90
30300;DHT22;17110;52.602;12.998;2023-03-20T17:21:37;10.50;99.90
30300;DHT22;17110;52.602;12.998;2023-03-20T17:24:03;10.40;99.90
30300;DHT22;17110;52.602;12.998;2023-03-20T17:26:30;10.40;99.90
30300;DHT22;17110;52.602;12.998;2023-03-20T17:28:55;10.30;99.90
30300;DHT22;17110;52.602;12.998;2023-03-20T17:31:22;10.40;99.90
30300;DHT22;17110;52.602;12.998;2023-03-20T17:33:47;10.50;99.90
30300;DHT22;17110;52.602;12.998;2023-03-20T17:36:20;10.60;99.90
30300;DHT22;17110;52.602;12.998;2023-03-20T17:38:47;10.50;99.90
30300;DHT22;17110;52.602;12.998;2023-03-20T17:41:14;10.60;99.90
30300;DHT22;17110;52.602;12.998;2023-03-20T17:43:40;10.60;99.90
30300;DHT22;17110;52.602;12.998;2023-03-20T17:46:14;10.50;99.90
30300;DHT22;17110;52.602;12.998;2023-03-20T17:48:41;10.60;99.90
30300;DHT22;17110;52.602;12.998;2023-03-20T17:51:08;10.70;99.90
30300;DHT22;17110;52.602;12.998;2023-03-20T17:53:34;10.60;99.90
30300;DHT22;17110;52.602;12.998;2023-03-20T17:56:00;10.50;99.90
30300;DHT22;17110;52.602;12.998;2023-03-20T17:58:26;10.50;99.90
30300;DHT22;17110;52.602;12.998;2023-03-20T18:00:53;10.50;99.90
30300;DHT22;17110;52.602;12.998;2023-03-20T18:03:20;10.50;99.90
30300;DHT22;17110;52.602;12.998;2023-03-20T18:05:50;10.40;99.90
30300;DHT22;17110;52.602;12.998;2023-03-20T18:08:20;10.30;99.90